Carlos Chagas, Brazil
Current Conditions -  °F | °C
As of 2:00 PM on Thursday 23 Oct 2014 (Local Time) from SBPS Reporting Station
Overcast Overcast  
Wind Chill: 72°   Ceiling: 2000
Heat Index: 72°   Visibility: 6mi
Dew Point: 66°   Wind: 9mph
Humidity: 83%   Direction: 190°S
Pressure: NA   Gusts: NA
Location:  17.7°S, 40.77°W
Report Text: SBPS 231600Z 19008KT 110V250 9999 SCT015 BKN020 OVC070 22/19 Q1018
Loading
Personal Weather Stations






























Interactive Weather Map
Tropical Storm Tracking
New forecast layout! Learn more

10-Day Weather Forecast

Advertisements
Track Severe Weather on mobile